Time;durP1;ratioP1;P1;durP2;ratioP2;P2;SDS_P1;SDS_P2;PMS_P1;PMS_P2;Temp;Humidity;BMP_temperature;BMP_pressure;BME280_temperature;BME280_humidity;BME280_pressure;Samples;Min_cycle;Max_cycle;Signal;HPM_P1;HPM_P2
2022/09/30 00:02:39;;;;;;;3.03;2.70;;;10.50;99.90;11.90;95756.00;;;;4968991;28;20239;-66
2022/09/30 00:05:28;;;;;;;2.93;2.53;;;10.50;99.90;11.80;95769.00;;;;4965313;28;20207;-67
2022/09/30 00:08:16;;;;;;;2.60;2.20;;;10.50;99.90;11.80;95768.00;;;;4952372;28;20298;-66
2022/09/30 00:11:09;;;;;;;2.13;2.03;;;10.50;99.90;11.90;95773.00;;;;4962336;28;20207;-66
2022/09/30 00:13:59;;;;;;;2.50;2.07;;;10.50;99.90;11.90;95757.00;;;;4971330;28;20700;-67
2022/09/30 00:16:49;;;;;;;2.93;1.97;;;10.50;99.90;12.00;95766.00;;;;4969519;28;20294;-66
2022/09/30 00:19:38;;;;;;;3.67;2.97;;;10.50;99.90;12.00;95765.00;;;;4964417;28;20204;-67
2022/09/30 00:22:26;;;;;;;2.60;2.40;;;10.50;99.90;11.90;95775.00;;;;4968807;28;20220;-67
2022/09/30 00:25:15;;;;;;;3.13;2.27;;;10.50;99.90;11.90;95764.00;;;;4954754;28;20278;-67
2022/09/30 00:28:06;;;;;;;2.90;2.57;;;10.50;99.90;11.80;95765.00;;;;4962111;28;20590;-67
2022/09/30 00:30:59;;;;;;;1.80;1.70;;;10.50;99.90;11.70;95764.00;;;;4952975;28;20208;-67
2022/09/30 00:34:05;;;;;;;2.30;2.10;;;10.50;99.90;11.60;95772.00;;;;4968367;28;20212;-67
2022/09/30 00:36:55;;;;;;;1.73;1.60;;;10.40;99.90;11.50;95771.00;;;;4968654;28;20210;-67
2022/09/30 00:39:44;;;;;;;5.70;2.30;;;10.40;99.90;11.40;95762.00;;;;4951631;28;20204;-67
2022/09/30 00:42:32;;;;;;;2.70;2.27;;;10.40;99.90;11.70;95768.00;;;;4964917;28;20207;-66
2022/09/30 00:45:21;;;;;;;2.30;2.10;;;10.40;99.90;11.80;95762.00;;;;4970056;28;20259;-66
2022/09/30 00:48:15;;;;;;;2.67;2.47;;;10.40;99.90;11.60;95765.00;;;;4969290;28;20278;-66
2022/09/30 00:51:07;;;;;;;4.63;2.53;;;10.40;99.90;11.60;95756.00;;;;4962776;28;20207;-66
2022/09/30 00:53:59;;;;;;;5.13;2.67;;;10.40;99.90;11.50;95763.00;;;;4970042;28;20676;-67
2022/09/30 00:56:52;;;;;;;2.53;1.97;;;10.30;99.90;11.50;95758.00;;;;4966546;28;20265;-67
2022/09/30 00:59:44;;;;;;;3.15;2.45;;;10.30;99.90;11.30;95772.00;;;;4950087;28;20772;-66
2022/09/30 01:02:33;;;;;;;1.93;1.70;;;10.30;99.90;11.60;95773.00;;;;4950829;28;20259;-67
2022/09/30 01:05:25;;;;;;;4.07;2.07;;;10.30;99.90;11.60;95765.00;;;;4960171;28;20275;-67
2022/09/30 01:08:17;;;;;;;1.90;1.80;;;10.30;99.90;11.70;95763.00;;;;4969610;28;20265;-66
2022/09/30 01:11:06;;;;;;;2.17;1.97;;;10.30;99.90;11.80;95763.00;;;;4969521;28;20242;-66
2022/09/30 01:13:59;;;;;;;2.50;2.30;;;10.30;99.90;11.80;95768.00;;;;4957028;28;20200;-66
2022/09/30 01:16:59;;;;;;;2.63;2.03;;;10.30;99.90;11.80;95762.00;;;;4960440;28;20199;-67
2022/09/30 01:20:39;;;;;;;2.13;2.03;;;10.30;99.90;11.90;95762.00;;;;4958549;28;20240;-67
2022/09/30 01:24:12;;;;;;;2.23;2.03;;;10.30;99.90;11.90;95760.00;;;;4950711;28;20207;-67
2022/09/30 01:27:40;;;;;;;3.13;2.53;;;10.40;99.90;12.00;95751.00;;;;4954151;28;20244;-67
2022/09/30 01:31:08;;;;;;;2.77;2.47;;;10.40;99.90;12.00;95759.00;;;;4924919;28;20215;-66
2022/09/30 01:34:07;;;;;;;1.80;1.70;;;10.40;99.90;11.90;95772.00;;;;4959151;28;20242;-66
2022/09/30 01:37:09;;;;;;;3.07;2.40;;;10.50;99.90;11.90;95767.00;;;;4964987;28;20301;-66
2022/09/30 01:40:05;;;;;;;3.20;1.87;;;10.40;99.90;11.80;95771.00;;;;4965116;28;20239;-67
2022/09/30 01:43:05;;;;;;;2.97;2.77;;;10.40;99.90;11.70;95773.00;;;;4951535;28;20247;-66
2022/09/30 01:45:59;;;;;;;2.97;2.50;;;10.40;99.90;11.90;95771.00;;;;4960635;28;20693;-67
2022/09/30 01:48:57;;;;;;;3.13;2.37;;;10.40;99.90;11.90;95775.00;;;;4968595;28;20251;-67
2022/09/30 01:51:54;;;;;;;2.87;2.20;;;10.40;99.90;11.90;95774.00;;;;4967970;28;20564;-66
2022/09/30 01:54:49;;;;;;;2.30;2.10;;;10.40;99.90;11.90;95773.00;;;;4962120;28;20214;-67
2022/09/30 01:57:45;;;;;;;2.47;2.27;;;10.40;99.90;11.80;95775.00;;;;4951035;28;20219;-67
2022/09/30 02:00:38;;;;;;;2.37;2.17;;;10.40;99.90;11.90;95769.00;;;;4951810;28;20204;-66
2022/09/30 02:03:34;;;;;;;2.83;2.40;;;10.40;99.90;11.90;95761.00;;;;4965054;28;20222;-66
2022/09/30 02:06:27;;;;;;;2.77;1.77;;;10.40;99.90;12.00;95749.00;;;;4957584;28;20247;-66
2022/09/30 02:09:22;;;;;;;3.27;2.60;;;10.50;99.90;12.00;95751.00;;;;4962620;28;20259;-66
2022/09/30 02:12:18;;;;;;;3.73;3.03;;;10.50;99.90;12.00;95750.00;;;;4969427;28;20290;-66
2022/09/30 02:15:14;;;;;;;3.50;2.33;;;10.50;99.90;11.90;95744.00;;;;4960699;28;20231;-67
2022/09/30 02:18:06;;;;;;;5.07;3.67;;;10.40;99.90;11.90;95744.00;;;;4965861;28;20270;-67
2022/09/30 02:21:02;;;;;;;4.90;2.77;;;10.40;99.90;11.90;95736.00;;;;4969091;28;20211;-67
2022/09/30 02:23:56;;;;;;;2.30;2.10;;;10.40;99.90;11.80;95733.00;;;;4970465;28;20217;-66
2022/09/30 02:26:47;;;;;;;2.73;2.40;;;10.40;99.90;11.70;95740.00;;;;4965635;28;20262;-66
2022/09/30 02:29:40;;;;;;;2.63;2.43;;;10.40;99.90;11.80;95740.00;;;;4961473;28;20274;-67
2022/09/30 02:32:35;;;;;;;3.77;3.27;;;10.40;99.90;11.90;95737.00;;;;4969367;28;20270;-66
2022/09/30 02:35:29;;;;;;;5.33;3.67;;;10.40;99.90;11.90;95736.00;;;;4968737;28;20290;-67
2022/09/30 02:38:24;;;;;;;5.70;3.67;;;10.40;99.90;11.90;95744.00;;;;4959619;28;20282;-66
2022/09/30 02:41:19;;;;;;;6.27;3.97;;;10.40;99.90;11.90;95733.00;;;;4970875;28;20207;-66
2022/09/30 02:44:08;;;;;;;4.67;3.60;;;10.40;99.90;11.80;95736.00;;;;4969109;28;20203;-67
2022/09/30 02:47:06;;;;;;;3.97;3.50;;;10.40;99.90;11.90;95736.00;;;;4959897;28;20290;-67
2022/09/30 02:50:02;;;;;;;6.00;3.97;;;10.40;99.90;11.80;95740.00;;;;4970201;28;20259;-66
2022/09/30 02:53:03;;;;;;;4.07;2.90;;;10.40;99.90;11.60;95745.00;;;;4972627;28;20711;-67
2022/09/30 02:56:09;;;;;;;3.95;3.58;;;10.40;99.90;11.40;95738.00;;;;4960319;28;20505;-67
2022/09/30 02:58:58;;;;;;;4.20;3.80;;;10.40;99.90;11.50;95749.00;;;;4961079;28;20474;-66
2022/09/30 03:01:46;;;;;;;3.60;3.30;;;10.30;99.90;11.70;95748.00;;;;4971622;28;20345;-66
2022/09/30 03:04:36;;;;;;;2.30;2.10;;;10.30;99.90;11.70;95743.00;;;;4964571;28;20230;-67
2022/09/30 03:07:25;;;;;;;2.67;2.37;;;10.30;99.90;11.40;95743.00;;;;4965329;28;20254;-67
2022/09/30 03:10:17;;;;;;;3.30;2.53;;;10.30;99.90;11.40;95744.00;;;;4957438;28;20204;-66
2022/09/30 03:13:31;;;;;;;3.13;2.53;;;10.20;99.90;11.40;95746.00;;;;4972376;28;20287;-66
2022/09/30 03:16:28;;;;;;;5.53;2.73;;;10.20;99.90;11.30;95756.00;;;;4972361;28;20253;-66
2022/09/30 03:19:53;;;;;;;2.93;2.37;;;10.20;99.90;11.50;95772.00;;;;4963339;28;20262;-67
2022/09/30 03:22:59;;;;;;;2.97;2.60;;;10.10;99.90;11.40;95766.00;;;;4965489;28;20639;-66
2022/09/30 03:25:58;;;;;;;3.00;2.50;;;10.10;99.90;11.30;95771.00;;;;4966877;28;20317;-66
2022/09/30 03:29:01;;;;;;;3.00;2.77;;;10.10;99.90;11.10;95769.00;;;;4962091;28;20286;-67
2022/09/30 03:32:06;;;;;;;2.30;2.10;;;10.10;99.90;11.30;95775.00;;;;4965722;28;20196;-67
2022/09/30 03:35:12;;;;;;;3.67;2.40;;;10.10;99.90;11.30;95790.00;;;;4967653;28;20791;-66
2022/09/30 03:38:11;;;;;;;3.23;2.70;;;10.10;99.90;11.30;95790.00;;;;4967116;28;20223;-67
2022/09/30 03:41:10;;;;;;;5.63;2.53;;;10.10;99.90;11.40;95791.00;;;;4962581;28;20235;-67
2022/09/30 03:44:09;;;;;;;7.57;2.80;;;10.10;99.90;11.50;95783.00;;;;4960723;28;20243;-67
2022/09/30 03:47:03;;;;;;;2.27;2.07;;;10.10;99.90;11.60;95790.00;;;;4968813;28;20310;-66
2022/09/30 03:49:57;;;;;;;2.00;1.80;;;10.10;99.90;11.60;95787.00;;;;4972611;28;20231;-67
2022/09/30 03:52:47;;;;;;;1.67;1.57;;;10.10;99.90;11.60;95791.00;;;;4968134;28;20707;-66
2022/09/30 03:55:47;;;;;;;2.20;2.00;;;10.10;99.90;11.70;95794.00;;;;4960183;28;20223;-66
2022/09/30 03:58:39;;;;;;;1.97;1.80;;;10.20;99.90;11.60;95802.00;;;;4952656;28;20270;-66
2022/09/30 04:01:29;;;;;;;1.93;1.50;;;10.20;99.90;11.60;95798.00;;;;4967043;28;20210;-66
2022/09/30 04:04:18;;;;;;;2.40;1.57;;;10.20;99.90;11.60;95808.00;;;;4963537;28;20243;-67
2022/09/30 04:07:07;;;;;;;2.53;2.33;;;10.20;99.90;11.60;95804.00;;;;4977443;28;20241;-66
2022/09/30 04:09:56;;;;;;;2.30;1.80;;;10.20;99.90;11.50;95802.00;;;;5020908;23;20241;-75
2022/09/30 04:12:44;;;;;;;3.27;2.00;;;10.20;99.90;11.60;95801.00;;;;5002554;28;20198;-75
2022/09/30 04:15:33;;;;;;;2.77;1.70;;;10.20;99.90;11.60;95804.00;;;;5002461;28;20211;-74
2022/09/30 04:18:23;;;;;;;1.60;1.50;;;10.20;99.90;11.60;95817.00;;;;5003790;28;20282;-75
2022/09/30 04:21:14;;;;;;;2.87;2.07;;;10.20;99.90;11.70;95824.00;;;;5008257;28;20216;-75
2022/09/30 04:24:02;;;;;;;4.13;2.63;;;8.50;99.90;11.70;95827.00;;;;5008281;28;20233;-75
2022/09/30 04:26:51;;;;;;;3.67;2.47;;;10.20;99.90;11.60;95824.00;;;;5010559;28;20237;-75
2022/09/30 04:29:40;;;;;;;2.50;2.10;;;10.20;99.90;11.50;95819.00;;;;5008486;28;20256;-74
2022/09/30 04:32:29;;;;;;;2.33;2.10;;;10.20;99.90;11.60;95822.00;;;;5005062;28;20293;-76
2022/09/30 04:35:19;;;;;;;2.20;2.00;;;10.20;99.90;11.70;95827.00;;;;5010109;28;20194;-76
2022/09/30 04:38:07;;;;;;;2.40;2.20;;;10.20;99.90;11.70;95830.00;;;;5008612;28;20245;-75
2022/09/30 04:40:56;;;;;;;1.73;1.63;;;10.20;99.90;11.60;95827.00;;;;5007773;28;20199;-75
2022/09/30 04:43:46;;;;;;;2.40;2.20;;;10.20;99.90;11.50;95826.00;;;;5007250;28;20263;-75
2022/09/30 04:46:36;;;;;;;2.33;1.83;;;10.20;99.90;11.50;95833.00;;;;5007591;28;20225;-76
2022/09/30 04:49:25;;;;;;;3.80;2.53;;;9.80;99.90;11.40;95841.00;;;;5004104;28;20686;-74
2022/09/30 04:52:15;;;;;;;2.27;2.07;;;10.10;99.90;11.40;95838.00;;;;5006248;28;20690;-75
2022/09/30 04:55:04;;;;;;;2.17;1.97;;;10.10;99.90;11.60;95848.00;;;;5002501;28;20646;-74
2022/09/30 04:57:53;;;;;;;2.73;2.13;;;10.10;99.90;11.60;95853.00;;;;5009310;28;20224;-74
2022/09/30 05:00:42;;;;;;;4.80;1.73;;;10.10;99.90;11.70;95852.00;;;;5009232;28;20777;-75
2022/09/30 05:03:31;;;;;;;1.50;1.40;;;10.10;99.90;11.60;95865.00;;;;5003166;28;20205;-74
2022/09/30 05:06:19;;;;;;;1.93;1.67;;;10.20;99.90;11.60;95855.00;;;;5001052;28;20223;-75
2022/09/30 05:09:09;;;;;;;2.80;1.70;;;10.20;99.90;11.60;95852.00;;;;5005666;28;20221;-75
2022/09/30 05:12:01;;;;;;;1.67;1.53;;;10.20;99.90;11.40;95865.00;;;;5007931;28;20208;-74
2022/09/30 05:14:49;;;;;;;2.03;1.37;;;10.20;99.90;11.30;95861.00;;;;5008274;28;20209;-75
2022/09/30 05:17:38;;;;;;;2.13;1.53;;;10.20;99.90;11.40;95871.00;;;;5008382;28;20206;-75
2022/09/30 05:20:27;;;;;;;1.80;1.53;;;10.10;99.90;11.40;95864.00;;;;4997637;28;20198;-74
2022/09/30 05:23:15;;;;;;;2.07;1.70;;;10.10;99.90;11.40;95866.00;;;;4995114;28;20226;-74
2022/09/30 05:26:06;;;;;;;1.70;1.40;;;10.10;99.90;11.60;95872.00;;;;5005966;28;20226;-74
2022/09/30 05:28:58;;;;;;;2.60;1.50;;;10.10;99.90;11.60;95880.00;;;;5002483;28;20316;-75
2022/09/30 05:31:47;;;;;;;1.57;1.47;;;10.10;99.90;11.70;95890.00;;;;5002028;28;20699;-74
2022/09/30 05:34:35;;;;;;;2.10;2.00;;;10.20;99.90;11.60;95893.00;;;;5005068;28;20597;-75
2022/09/30 05:37:24;;;;;;;2.60;1.50;;;10.20;99.90;11.70;95897.00;;;;5003167;28;20630;-74
2022/09/30 05:40:13;;;;;;;1.47;1.37;;;10.20;99.90;11.70;95895.00;;;;5001774;28;20649;-74
2022/09/30 05:43:03;;;;;;;1.70;1.33;;;10.30;99.90;11.60;95913.00;;;;5002310;28;20217;-74
2022/09/30 05:45:55;;;;;;;1.63;1.00;;;10.30;99.90;11.60;95916.00;;;;5006163;28;20198;-75
2022/09/30 05:48:44;;;;;;;3.93;1.07;;;10.30;99.90;11.90;95916.00;;;;5004068;28;20230;-75
2022/09/30 05:51:32;;;;;;;1.30;1.20;;;10.30;99.90;12.00;95910.00;;;;5008212;28;20206;-75
2022/09/30 05:54:21;;;;;;;1.27;1.17;;;10.40;99.90;12.00;95916.00;;;;5009417;28;20237;-75
2022/09/30 05:57:10;;;;;;;1.50;1.40;;;10.50;99.90;12.10;95918.00;;;;4998478;28;20205;-75
2022/09/30 06:00:01;;;;;;;1.03;1.03;;;10.50;99.90;12.10;95922.00;;;;5009108;28;20250;-74
2022/09/30 06:02:52;;;;;;;1.07;0.90;;;10.50;99.90;12.10;95927.00;;;;5006761;28;20206;-74
2022/09/30 06:05:41;;;;;;;3.30;1.27;;;10.60;99.90;12.20;95927.00;;;;5003229;28;20205;-75
2022/09/30 06:08:30;;;;;;;1.47;1.30;;;10.70;99.90;12.20;95930.00;;;;4998643;28;20233;-75
2022/09/30 06:11:23;;;;;;;1.80;1.37;;;10.70;99.90;12.20;95944.00;;;;5006072;28;20240;-74
2022/09/30 06:14:12;;;;;;;2.37;1.43;;;10.70;99.90;12.20;95936.00;;;;5009051;28;20257;-75
2022/09/30 06:17:02;;;;;;;1.07;0.97;;;10.80;99.90;12.10;95941.00;;;;5008243;28;20206;-74
2022/09/30 06:19:51;;;;;;;1.37;1.10;;;10.80;99.90;12.10;95944.00;;;;5001884;28;20695;-74
2022/09/30 06:22:42;;;;;;;1.30;1.20;;;10.80;99.90;12.20;95943.00;;;;5008342;28;20206;-74
2022/09/30 06:25:31;;;;;;;1.50;1.40;;;10.80;99.90;12.10;95945.00;;;;5011422;28;20244;-75
2022/09/30 06:28:20;;;;;;;1.67;1.57;;;10.80;99.90;12.00;95947.00;;;;5012448;28;20277;-74
2022/09/30 06:31:10;;;;;;;1.03;1.03;;;10.70;99.90;11.90;95961.00;;;;5012277;28;20209;-74
2022/09/30 06:34:00;;;;;;;1.33;1.23;;;10.70;99.90;12.00;95956.00;;;;5012715;28;20197;-75
2022/09/30 06:36:49;;;;;;;3.27;1.17;;;10.70;99.90;12.40;95953.00;;;;5012710;28;20210;-75
2022/09/30 06:39:37;;;;;;;7.97;1.30;;;10.80;99.90;12.30;95950.00;;;;5012387;28;20356;-75
2022/09/30 06:42:26;;;;;;;1.53;1.43;;;10.80;99.90;12.30;95962.00;;;;5013522;28;20221;-74
2022/09/30 06:45:17;;;;;;;2.10;1.87;;;10.90;99.90;12.30;95961.00;;;;5013104;28;20256;-74
2022/09/30 06:48:15;;;;;;;1.10;1.10;;;10.80;99.90;12.20;95965.00;;;;5012648;28;20711;-75
2022/09/30 06:51:08;;;;;;;5.90;0.97;;;10.90;99.90;12.40;95963.00;;;;5020262;28;20255;-75
2022/09/30 06:53:57;;;;;;;1.10;0.80;;;10.90;99.90;12.70;95972.00;;;;5020069;28;20202;-75
2022/09/30 06:56:47;;;;;;;3.33;1.20;;;11.00;99.90;12.80;95979.00;;;;5010074;28;20297;-75
2022/09/30 06:59:36;;;;;;;1.33;1.20;;;11.10;99.90;12.70;95984.00;;;;5008392;28;20285;-74
2022/09/30 07:02:24;;;;;;;3.40;1.23;;;11.10;99.90;12.80;95985.00;;;;5011562;28;20695;-75
2022/09/30 07:05:14;;;;;;;1.53;1.10;;;11.20;99.90;12.60;96002.00;;;;5006801;28;20420;-75
2022/09/30 07:08:04;;;;;;;3.40;1.40;;;11.20;99.90;12.60;96005.00;;;;5009982;28;20702;-75
2022/09/30 07:10:53;;;;;;;1.43;1.33;;;11.20;99.90;12.70;96002.00;;;;4996167;28;20213;-75
2022/09/30 07:13:44;;;;;;;3.97;2.00;;;11.20;99.90;12.70;96010.00;;;;4991597;28;20709;-74
2022/09/30 07:16:33;;;;;;;1.40;1.30;;;11.30;99.90;12.70;96002.00;;;;4984973;28;20206;-75
2022/09/30 07:19:22;;;;;;;3.47;1.50;;;11.30;99.90;12.80;96013.00;;;;4979179;28;20223;-75
2022/09/30 07:22:30;;;;;;;1.80;1.30;;;11.30;99.90;12.80;96015.00;;;;4988103;28;20254;-74
2022/09/30 07:25:20;;;;;;;2.90;0.90;;;11.30;99.90;12.90;96020.00;;;;4990360;28;20284;-75
2022/09/30 07:28:09;;;;;;;1.27;1.00;;;11.40;99.90;12.80;96031.00;;;;4983364;28;20316;-75
2022/09/30 07:31:01;;;;;;;1.30;1.20;;;11.40;99.90;12.70;96030.00;;;;4992123;28;20241;-75
2022/09/30 07:34:09;;;;;;;5.07;1.27;;;11.40;99.90;12.70;96035.00;;;;4980284;28;20203;-75
2022/09/30 07:36:58;;;;;;;2.97;1.47;;;11.40;99.90;13.00;96044.00;;;;4989986;28;20210;-75
2022/09/30 07:39:48;;;;;;;2.33;2.10;;;11.50;99.90;13.20;96049.00;;;;4986553;28;20288;-75
2022/09/30 07:42:44;;;;;;;2.77;2.00;;;11.60;99.90;13.30;96049.00;;;;4985583;28;20222;-75
2022/09/30 07:45:33;;;;;;;1.40;1.30;;;11.70;99.90;13.40;96060.00;;;;4994781;28;20218;-75
2022/09/30 07:48:43;;;;;;;1.63;1.07;;;11.80;99.90;13.60;96068.00;;;;4987523;28;20234;-75
2022/09/30 07:51:34;;;;;;;1.23;1.13;;;11.90;99.90;14.10;96064.00;;;;4989536;28;20677;-74
2022/09/30 07:54:27;;;;;;;1.10;1.00;;;12.10;99.90;14.00;96071.00;;;;4983721;28;20210;-75
2022/09/30 07:57:15;;;;;;;0.90;0.90;;;12.20;99.90;13.90;96064.00;;;;4987585;28;20247;-75
2022/09/30 08:00:07;;;;;;;1.07;0.93;;;12.30;99.90;13.90;96057.00;;;;4981769;28;20230;-76
2022/09/30 08:03:10;;;;;;;1.40;1.27;;;12.40;99.90;13.90;96059.00;;;;4983461;28;20210;-75
2022/09/30 08:06:05;;;;;;;1.67;1.57;;;12.50;99.90;14.20;96067.00;;;;4988288;28;20199;-75
2022/09/30 08:08:56;;;;;;;2.47;1.70;;;12.50;99.90;14.20;96062.00;;;;4992218;28;20240;-75
2022/09/30 08:11:45;;;;;;;2.87;2.17;;;12.70;99.90;14.40;96076.00;;;;5009505;28;20194;-75
2022/09/30 08:14:35;;;;;;;2.93;2.70;;;12.80;99.90;14.40;96088.00;;;;5008545;28;20213;-75
2022/09/30 08:17:25;;;;;;;2.83;1.83;;;12.90;99.90;14.40;96090.00;;;;5003870;28;20221;-76
2022/09/30 08:20:14;;;;;;;3.50;1.90;;;12.90;99.90;14.60;96078.00;;;;5005027;28;20225;-76
2022/09/30 08:23:05;;;;;;;2.40;1.60;;;13.00;99.90;14.70;96082.00;;;;5006746;28;20198;-76
2022/09/30 08:26:01;;;;;;;1.43;1.33;;;13.10;99.90;14.60;96112.00;;;;5003817;28;20224;-75
2022/09/30 08:28:50;;;;;;;2.07;1.67;;;13.20;99.90;14.80;96120.00;;;;4998446;28;20225;-75
2022/09/30 08:31:39;;;;;;;7.13;1.60;;;13.30;99.90;15.00;96126.00;;;;5003066;28;20246;-75
2022/09/30 08:34:34;;;;;;;2.60;1.20;;;13.30;99.90;14.80;96140.00;;;;5007606;28;20205;-75
2022/09/30 08:37:22;;;;;;;1.63;1.10;;;13.40;99.90;15.10;96140.00;;;;5008606;28;20206;-75
2022/09/30 08:40:20;;;;;;;2.50;0.83;;;13.50;99.90;15.70;96115.00;;;;5007921;28;20780;-75
2022/09/30 08:43:25;;;;;;;1.50;1.30;;;13.70;99.90;15.80;96121.00;;;;4998903;28;20213;-75
2022/09/30 08:46:27;;;;;;;2.50;1.53;;;13.90;99.90;16.00;96131.00;;;;5004648;28;20214;-75
2022/09/30 08:49:36;;;;;;;2.40;1.60;;;14.10;99.90;16.40;96132.00;;;;5006351;28;20229;-75
2022/09/30 08:52:29;;;;;;;3.40;1.73;;;14.30;99.90;16.70;96138.00;;;;5003352;28;20209;-75
2022/09/30 08:55:42;;;;;;;1.60;1.50;;;14.60;99.90;16.70;96145.00;;;;5003878;28;20199;-75
2022/09/30 08:58:33;;;;;;;3.80;1.53;;;14.90;99.90;16.90;96131.00;;;;5004783;28;20737;-75
2022/09/30 09:01:30;;;;;;;2.47;1.67;;;15.10;99.90;17.70;96132.00;;;;4997082;28;20275;-75
2022/09/30 09:04:19;;;;;;;2.70;1.60;;;15.40;99.90;17.80;96129.00;;;;5001210;28;20203;-75
2022/09/30 09:07:24;;;;;;;1.73;1.63;;;15.70;99.90;18.30;96137.00;;;;5002604;28;20300;-75
2022/09/30 09:10:28;;;;;;;2.53;1.23;;;15.90;99.90;17.90;96136.00;;;;4997071;28;20298;-75
2022/09/30 09:13:38;;;;;;;1.60;1.50;;;16.10;99.90;18.80;96152.00;;;;5001868;28;20197;-75
2022/09/30 09:16:34;;;;;;;2.57;1.43;;;16.40;99.90;18.30;96159.00;;;;4998068;28;20413;-76
2022/09/30 09:19:26;;;;;;;1.50;1.00;;;16.60;99.90;18.80;96162.00;;;;5005288;28;20665;-75
2022/09/30 09:22:16;;;;;;;1.70;1.33;;;16.90;99.90;17.90;96183.00;;;;4995416;28;20291;-76
2022/09/30 09:25:11;;;;;;;1.60;1.10;;;16.80;99.90;17.60;96180.00;;;;5009923;28;20202;-75
2022/09/30 09:28:02;;;;;;;2.40;1.30;;;16.60;99.90;17.90;96149.00;;;;5002343;28;20233;-75
2022/09/30 09:30:56;;;;;;;1.20;1.10;;;16.60;99.90;18.80;96157.00;;;;4998652;28;20322;-76
2022/09/30 09:33:47;;;;;;;1.33;0.97;;;16.80;99.90;18.60;96154.00;;;;5006598;28;20675;-75
2022/09/30 09:36:52;;;;;;;1.50;1.10;;;17.00;99.90;19.30;96159.00;;;;4995503;28;20675;-75
2022/09/30 09:40:07;;;;;;;0.97;0.80;;;17.20;99.90;19.90;96156.00;;;;5007897;28;20611;-76
2022/09/30 09:43:12;;;;;;;2.00;0.60;;;17.60;99.90;19.70;96149.00;;;;5003471;28;20210;-76
2022/09/30 09:46:12;;;;;;;0.73;0.73;;;17.80;99.90;20.00;96156.00;;;;5006026;28;20679;-74
2022/09/30 09:49:39;;;;;;;2.53;0.77;;;17.90;99.90;20.10;96183.00;;;;5006999;28;20233;-76
2022/09/30 09:52:44;;;;;;;0.63;0.53;;;18.00;99.90;20.40;96189.00;;;;5006503;28;20694;-75
2022/09/30 09:55:36;;;;;;;1.53;1.30;;;18.10;99.90;20.00;96190.00;;;;5005683;28;20285;-75
2022/09/30 09:58:27;;;;;;;0.70;0.70;;;18.10;99.90;19.90;96185.00;;;;5007816;28;20233;-75
2022/09/30 10:04:29;;;;;;;0.57;0.57;;;18.10;99.90;19.10;96147.00;;;;5009445;28;20250;-75
2022/09/30 10:07:20;;;;;;;0.80;0.63;;;18.10;99.90;19.30;96178.00;;;;5007464;28;20288;-75
2022/09/30 10:10:18;;;;;;;0.50;0.50;;;18.00;99.90;18.90;96177.00;;;;5040718;23;20237;-67
2022/09/30 10:13:21;;;;;;;0.70;0.70;;;17.90;99.90;19.00;96163.00;;;;5018329;28;20205;-67
2022/09/30 10:16:28;;;;;;;1.20;0.73;;;17.80;99.90;19.90;96182.00;;;;5033820;28;20200;-67
2022/09/30 10:19:23;;;;;;;0.63;0.63;;;18.00;99.90;20.70;96172.00;;;;5023483;28;20236;-67
2022/09/30 10:22:27;;;;;;;1.40;0.60;;;18.30;99.90;21.70;96187.00;;;;5026683;28;20359;-67
2022/09/30 10:25:22;;;;;;;0.70;0.60;;;18.70;99.90;20.40;96196.00;;;;5021464;28;20687;-67
2022/09/30 10:28:26;;;;;;;0.63;0.60;;;19.00;99.90;21.00;96221.00;;;;5028051;28;20193;-67
2022/09/30 10:31:22;;;;;;;0.70;0.70;;;19.00;99.90;20.70;96237.00;;;;5026668;28;20703;-67
2022/09/30 10:34:21;;;;;;;0.90;0.73;;;19.00;99.90;20.50;96222.00;;;;5024504;28;20198;-67
2022/09/30 10:37:15;;;;;;;1.67;1.57;;;18.90;99.90;21.00;96235.00;;;;5028335;28;20208;-67
2022/09/30 10:40:12;;;;;;;1.40;1.30;;;18.90;99.90;21.00;96236.00;;;;5025460;28;20225;-67
2022/09/30 10:43:01;;;;;;;1.10;1.00;;;19.00;99.90;21.00;96222.00;;;;5030838;28;20201;-67
2022/09/30 10:45:52;;;;;;;1.90;1.47;;;19.00;99.90;21.00;96239.00;;;;5016254;28;20260;-67
2022/09/30 10:48:57;;;;;;;1.23;1.10;;;19.10;99.90;21.80;96223.00;;;;5029011;28;20229;-67
2022/09/30 10:51:46;;;;;;;1.40;1.30;;;19.30;99.90;21.90;96267.00;;;;5032982;28;20690;-67
2022/09/30 10:54:49;;;;;;;1.17;1.07;;;19.70;99.90;22.00;96271.00;;;;5041468;28;20583;-68
2022/09/30 10:57:38;;;;;;;1.50;1.40;;;19.80;99.90;21.40;96272.00;;;;5032033;28;20205;-67
2022/09/30 11:00:31;;;;;;;1.27;0.90;;;19.70;99.90;21.30;96270.00;;;;5024849;28;20618;-67
2022/09/30 11:03:29;;;;;;;3.97;1.20;;;19.60;99.90;20.50;96269.00;;;;5022242;28;20205;-67
2022/09/30 11:06:19;;;;;;;1.87;1.00;;;19.40;99.90;20.40;96281.00;;;;5023904;28;20213;-67
2022/09/30 11:09:14;;;;;;;1.40;1.30;;;19.20;99.90;20.60;96264.00;;;;5023983;28;20740;-67
2022/09/30 11:12:13;;;;;;;1.13;1.03;;;19.00;99.90;21.00;96260.00;;;;5023438;28;20205;-67
2022/09/30 11:15:13;;;;;;;1.50;1.13;;;19.00;99.90;21.00;96259.00;;;;5013300;28;20234;-67
2022/09/30 11:18:14;;;;;;;1.00;0.90;;;19.10;99.90;21.10;96276.00;;;;5030417;28;20685;-67
2022/09/30 11:21:12;;;;;;;2.60;1.20;;;19.10;99.90;20.40;96292.00;;;;5022247;28;20254;-67
2022/09/30 11:24:07;;;;;;;2.70;1.20;;;19.10;99.90;19.80;96292.00;;;;5030768;28;20207;-67
2022/09/30 11:27:04;;;;;;;1.33;1.13;;;18.90;99.90;21.00;96247.00;;;;5022613;28;20223;-67
2022/09/30 11:30:04;;;;;;;1.70;1.43;;;18.80;99.90;21.10;96307.00;;;;5025235;28;20310;-67
2022/09/30 11:33:18;;;;;;;1.10;1.00;;;19.00;99.90;20.50;96306.00;;;;5021127;28;20194;-67
2022/09/30 11:36:24;;;;;;;1.00;1.00;;;18.80;99.90;20.30;96313.00;;;;5025457;28;20201;-67
2022/09/30 11:39:45;;;;;;;0.93;0.93;;;18.70;99.90;19.80;96309.00;;;;5028753;28;20221;-67
2022/09/30 11:42:42;;;;;;;1.30;0.90;;;18.40;99.90;19.00;96322.00;;;;5017543;28;20229;-67
2022/09/30 11:45:46;;;;;;;1.70;0.70;;;18.00;99.90;18.70;96324.00;;;;5021087;28;20197;-67
2022/09/30 11:49:02;;;;;;;1.10;0.87;;;17.70;99.90;18.70;96319.00;;;;5017451;28;20211;-67
2022/09/30 11:52:04;;;;;;;1.43;1.10;;;17.40;99.90;18.50;96329.00;;;;5003491;28;20213;-67
2022/09/30 11:55:12;;;;;;;3.53;0.90;;;17.20;99.90;18.20;96320.00;;;;5021869;28;20664;-67
2022/09/30 11:58:09;;;;;;;1.10;0.80;;;17.00;99.90;18.40;96314.00;;;;5016776;28;20220;-66
2022/09/30 12:01:27;;;;;;;1.07;0.97;;;16.80;99.90;18.60;96320.00;;;;5020870;28;20553;-68
2022/09/30 12:04:21;;;;;;;3.07;1.10;;;16.80;99.90;19.40;96328.00;;;;5020116;28;20206;-66
2022/09/30 12:07:17;;;;;;;3.73;2.27;;;17.00;99.90;19.30;96331.00;;;;5016003;28;20213;-68
2022/09/30 12:10:19;;;;;;;0.83;0.77;;;17.10;99.90;19.20;96333.00;;;;5011696;28;20752;-69
2022/09/30 12:13:12;;;;;;;1.23;0.90;;;17.30;99.90;19.30;96319.00;;;;5023378;28;20247;-67
2022/09/30 12:16:03;;;;;;;2.03;0.97;;;17.40;99.90;19.20;96334.00;;;;5018187;28;20202;-68
2022/09/30 12:18:57;;;;;;;0.87;0.87;;;17.40;99.90;19.20;96333.00;;;;5019071;28;20232;-69
2022/09/30 12:21:55;;;;;;;0.83;0.83;;;17.40;99.90;18.90;96338.00;;;;5016462;28;20248;-67
2022/09/30 12:24:45;;;;;;;1.10;1.00;;;17.40;99.90;19.20;96341.00;;;;5015863;28;20209;-69
2022/09/30 12:27:40;;;;;;;1.00;1.00;;;17.40;99.90;19.30;96344.00;;;;5025116;28;20263;-69
2022/09/30 12:30:30;;;;;;;1.40;1.00;;;17.50;99.90;19.50;96342.00;;;;5018033;28;20225;-69
2022/09/30 12:33:50;;;;;;;0.90;0.90;;;17.50;99.90;19.30;96341.00;;;;5030144;28;20197;-68
2022/09/30 12:37:01;;;;;;;2.60;2.50;;;17.60;99.90;19.40;96345.00;;;;5013683;28;20213;-69
2022/09/30 12:40:33;;;;;;;1.53;1.10;;;17.50;99.90;19.10;96345.00;;;;5019855;28;20221;-68
2022/09/30 12:43:58;;;;;;;0.93;0.93;;;17.50;99.90;18.90;96363.00;;;;5010468;28;20206;-68
2022/09/30 12:47:06;;;;;;;1.17;1.00;;;17.30;99.90;18.80;96365.00;;;;5017472;28;20197;-68
2022/09/30 12:49:57;;;;;;;1.97;0.83;;;17.20;99.90;18.70;96378.00;;;;5026191;28;20255;-68
2022/09/30 12:52:46;;;;;;;1.60;1.00;;;17.10;99.90;18.60;96381.00;;;;5025309;28;20236;-68
2022/09/30 12:55:41;;;;;;;0.70;0.70;;;16.90;99.90;18.70;96374.00;;;;5021415;28;20198;-68
2022/09/30 12:58:35;;;;;;;0.70;0.63;;;16.90;99.90;18.60;96361.00;;;;5020392;28;20699;-68
2022/09/30 13:01:27;;;;;;;1.13;1.00;;;16.90;99.90;19.00;96344.00;;;;5022017;28;20208;-69
2022/09/30 13:04:33;;;;;;;1.10;0.80;;;16.90;99.90;19.50;96378.00;;;;5019107;28;20212;-68